Dewey R — WDC3093 — position and weather

sailwx.info

Track history (hours):
 
Tides and Currents Weather Stations Pressure Air Temp Water Temp Dewpoint Dewpoint Depression Visibility Wind Speed Wind Dir Waves Ship Positions

Dewey R

Owner: Apex Towing Company a division of Apex Oil Company, St. Louis, MO. More information available from US FCC via Universal Licensing System and Coast Guard Vessel Documentation Center.

Last reported at 2018-Jan-12 14:58 UTC. Time now 2018-Jan-21 20:24 UTC.
Position N 39°10' W 090°37'.
Warning: this ship's position is 9 days out of date.

Length 45 m; draft 3 m.

Type: Tow > 200 m length. MMSI: 367002540.

Date/timePositionNaut miles runAvg speedWind from/ knotsBaromVisibWave heightAir tempDewpointWater temp
2018-Jan-12 14:58N 39°10' W 090°37'2 5.0
2018-Jan-12 14:30N 39°08' W 090°36'3 4.9
2018-Jan-12 13:59N 39°05' W 090°36'2 3.8
2018-Jan-12 13:29N 39°03' W 090°35'2 4.1
2018-Jan-12 13:00N 39°01' W 090°34'2 4.5
2018-Jan-12 12:29N 38°59' W 090°34'2 4.9
2018-Jan-12 12:00N 38°57' W 090°32'2 3.4
2018-Jan-12 11:30N 38°58' W 090°30'3 5.1
2018-Jan-12 11:00N 38°58' W 090°27'3 5.4
2018-Jan-12 10:31N 38°57' W 090°23'3 5.5
2018-Jan-12 10:00N 38°56' W 090°20'2 4.6
2018-Jan-12 09:30N 38°55' W 090°17'3 5.1
2018-Jan-12 09:00N 38°55' W 090°14'2 4.5
2018-Jan-12 08:30N 38°54' W 090°12'2 4.9
2018-Jan-12 08:01N 38°52' W 090°09'0 0.3
2018-Jan-12 07:30N 38°52' W 090°09'0 0.1
2018-Jan-12 07:00N 38°52' W 090°09'1 2.5
2018-Jan-12 06:31N 38°51' W 090°08'0 0.0
2018-Jan-12 06:01N 38°51' W 090°08'0 0.0
2018-Jan-12 05:31N 38°51' W 090°08'0 0.0
2018-Jan-12 05:01N 38°51' W 090°08'0 0.0
2018-Jan-12 04:31N 38°51' W 090°08'0 0.0
2018-Jan-12 04:00N 38°51' W 090°08'0 0.0
2018-Jan-12 03:30N 38°51' W 090°08'0 0.3
2018-Jan-12 03:01N 38°51' W 090°07'2 4.5
2018-Jan-12 02:30N 38°49' W 090°07'3 5.4
2018-Jan-12 02:01N 38°47' W 090°08'2 4.4
2018-Jan-12 01:31N 38°45' W 090°09'0 0.8
2018-Jan-12 01:01N 38°44' W 090°09'1 1.7
2018-Jan-12 00:30N 38°44' W 090°10'2 2.5
2018-Jan-11 23:43N 38°42' W 090°11'0 0.4
2018-Jan-11 23:29N 38°42' W 090°11'0 0.5
2018-Jan-11 22:55N 38°42' W 090°11'0 0.0
2018-Jan-11 22:30N 38°42' W 090°11'1 1.6
2018-Jan-11 22:01N 38°41' W 090°11'3 5.5
2018-Jan-11 21:30N 38°38' W 090°11'  
2018-Jan-05 15:16N 32°40' W 091°08'4 3.9
2018-Jan-05 14:19N 32°36' W 091°09'2 4.5
2018-Jan-05 13:52N 32°35' W 091°07'2 4.5
2018-Jan-05 13:30N 32°34' W 091°06'2 4.5
2018-Jan-05 13:00N 32°31' W 091°06'2 5.0
2018-Jan-05 12:30N 32°29' W 091°07'2 4.5
2018-Jan-05 12:00N 32°27' W 091°05'2 4.6
2018-Jan-05 11:30N 32°26' W 091°03'2 4.5
2018-Jan-05 11:00N 32°25' W 091°00'2 4.0
2018-Jan-05 10:30N 32°23' W 090°60'2 4.0
2018-Jan-05 10:00N 32°21' W 090°60'2 5.0
2018-Jan-05 09:30N 32°21' W 090°57'2 4.6
2018-Jan-05 09:00N 32°20' W 090°54'2 4.1
2018-Jan-05 08:30N 32°18' W 090°55'0 0.9
2018-Jan-05 08:00N 32°18' W 090°55'0 0.1
2018-Jan-05 07:30N 32°18' W 090°55'0 0.2
2018-Jan-05 07:01N 32°18' W 090°55'0 0.1
2018-Jan-05 06:31N 32°18' W 090°55'0 0.1
2018-Jan-05 06:01N 32°18' W 090°55'0 0.3
2018-Jan-05 05:31N 32°18' W 090°55'2 3.4
2018-Jan-05 05:01N 32°17' W 090°57'2 4.8
2018-Jan-05 04:31N 32°15' W 090°59'3 5.5
2018-Jan-05 04:00N 32°12' W 090°59'3 4.9
2018-Jan-05 03:27N 32°10' W 091°00'2 4.2
2018-Jan-05 03:01N 32°08' W 091°01'2 3.6
2018-Jan-05 02:30N 32°07' W 091°03'2 3.8
2018-Jan-05 02:00N 32°08' W 091°05'2 3.7
2018-Jan-05 01:31N 32°07' W 091°06'  
Track history (hours):
 
Tides and Currents Weather Stations Pressure Air Temp Water Temp Dewpoint Dewpoint Depression Visibility Wind Speed Wind Dir Waves Ship Positions

Dewey R

Owner: Apex Towing Company a division of Apex Oil Company, St. Louis, MO. More information available from US FCC via Universal Licensing System and Coast Guard Vessel Documentation Center.

Last reported at 2018-Jan-12 14:58 UTC. Time now 2018-Jan-21 20:24 UTC.
Position N 39°10' W 090°37'.
Warning: this ship's position is 9 days out of date.

Length 45 m; draft 3 m.

Type: Tow > 200 m length. MMSI: 367002540.

Date/timePositionNaut miles runAvg speedWind from/ knotsBaromVisibWave heightAir tempDewpointWater temp
2018-Jan-12 14:58N 39°10' W 090°37'2 5.0
2018-Jan-12 14:30N 39°08' W 090°36'3 4.9
2018-Jan-12 13:59N 39°05' W 090°36'2 3.8
2018-Jan-12 13:29N 39°03' W 090°35'2 4.1
2018-Jan-12 13:00N 39°01' W 090°34'2 4.5
2018-Jan-12 12:29N 38°59' W 090°34'2 4.9
2018-Jan-12 12:00N 38°57' W 090°32'2 3.4
2018-Jan-12 11:30N 38°58' W 090°30'3 5.1
2018-Jan-12 11:00N 38°58' W 090°27'3 5.4
2018-Jan-12 10:31N 38°57' W 090°23'3 5.5
2018-Jan-12 10:00N 38°56' W 090°20'2 4.6
2018-Jan-12 09:30N 38°55' W 090°17'3 5.1
2018-Jan-12 09:00N 38°55' W 090°14'2 4.5
2018-Jan-12 08:30N 38°54' W 090°12'2 4.9
2018-Jan-12 08:01N 38°52' W 090°09'0 0.3
2018-Jan-12 07:30N 38°52' W 090°09'0 0.1
2018-Jan-12 07:00N 38°52' W 090°09'1 2.5
2018-Jan-12 06:31N 38°51' W 090°08'0 0.0
2018-Jan-12 06:01N 38°51' W 090°08'0 0.0
2018-Jan-12 05:31N 38°51' W 090°08'0 0.0
2018-Jan-12 05:01N 38°51' W 090°08'0 0.0
2018-Jan-12 04:31N 38°51' W 090°08'0 0.0
2018-Jan-12 04:00N 38°51' W 090°08'0 0.0
2018-Jan-12 03:30N 38°51' W 090°08'0 0.3
2018-Jan-12 03:01N 38°51' W 090°07'2 4.5
2018-Jan-12 02:30N 38°49' W 090°07'3 5.4
2018-Jan-12 02:01N 38°47' W 090°08'2 4.4
2018-Jan-12 01:31N 38°45' W 090°09'0 0.8
2018-Jan-12 01:01N 38°44' W 090°09'1 1.7
2018-Jan-12 00:30N 38°44' W 090°10'2 2.5
2018-Jan-11 23:43N 38°42' W 090°11'0 0.4
2018-Jan-11 23:29N 38°42' W 090°11'0 0.5
2018-Jan-11 22:55N 38°42' W 090°11'0 0.0
2018-Jan-11 22:30N 38°42' W 090°11'1 1.6
2018-Jan-11 22:01N 38°41' W 090°11'3 5.5
2018-Jan-11 21:30N 38°38' W 090°11'  
2018-Jan-05 15:16N 32°40' W 091°08'4 3.9
2018-Jan-05 14:19N 32°36' W 091°09'2 4.5
2018-Jan-05 13:52N 32°35' W 091°07'2 4.5
2018-Jan-05 13:30N 32°34' W 091°06'2 4.5
2018-Jan-05 13:00N 32°31' W 091°06'2 5.0
2018-Jan-05 12:30N 32°29' W 091°07'2 4.5
2018-Jan-05 12:00N 32°27' W 091°05'2 4.6
2018-Jan-05 11:30N 32°26' W 091°03'2 4.5
2018-Jan-05 11:00N 32°25' W 091°00'2 4.0
2018-Jan-05 10:30N 32°23' W 090°60'2 4.0
2018-Jan-05 10:00N 32°21' W 090°60'2 5.0
2018-Jan-05 09:30N 32°21' W 090°57'2 4.6
2018-Jan-05 09:00N 32°20' W 090°54'2 4.1
2018-Jan-05 08:30N 32°18' W 090°55'0 0.9
2018-Jan-05 08:00N 32°18' W 090°55'0 0.1
2018-Jan-05 07:30N 32°18' W 090°55'0 0.2
2018-Jan-05 07:01N 32°18' W 090°55'0 0.1
2018-Jan-05 06:31N 32°18' W 090°55'0 0.1
2018-Jan-05 06:01N 32°18' W 090°55'0 0.3
2018-Jan-05 05:31N 32°18' W 090°55'2 3.4
2018-Jan-05 05:01N 32°17' W 090°57'2 4.8
2018-Jan-05 04:31N 32°15' W 090°59'3 5.5
2018-Jan-05 04:00N 32°12' W 090°59'3 4.9
2018-Jan-05 03:27N 32°10' W 091°00'2 4.2
2018-Jan-05 03:01N 32°08' W 091°01'2 3.6
2018-Jan-05 02:30N 32°07' W 091°03'2 3.8
2018-Jan-05 02:00N 32°08' W 091°05'2 3.7
2018-Jan-05 01:31N 32°07' W 091°06'  

Dump ship's entire track history